createdAt,value
2023-01-18T00:01:19.485Z,97963.00
2023-01-18T00:03:46.755Z,97961.00
2023-01-18T00:06:14.147Z,97958.00
2023-01-18T00:08:42.470Z,97963.00
2023-01-18T00:11:15.259Z,97965.00
2023-01-18T00:13:42.913Z,97966.00
2023-01-18T00:16:21.862Z,97977.00
2023-01-18T00:18:57.327Z,97981.00
2023-01-18T00:21:26.791Z,97984.00
2023-01-18T00:23:55.708Z,97984.00
2023-01-18T00:26:22.899Z,97981.00
2023-01-18T00:28:49.837Z,97986.00
2023-01-18T00:31:20.213Z,97996.00
2023-01-18T00:33:49.682Z,97992.00
2023-01-18T00:36:17.909Z,98005.00
2023-01-18T00:38:51.785Z,98003.00
2023-01-18T00:41:20.409Z,97992.00
2023-01-18T00:43:47.460Z,97998.00
2023-01-18T00:46:27.362Z,97972.00
2023-01-18T00:48:55.486Z,97974.00
2023-01-18T00:51:24.861Z,98002.00
2023-01-18T00:53:51.988Z,98004.00
2023-01-18T00:56:25.532Z,97995.00
2023-01-18T00:58:52.452Z,98014.00
2023-01-18T01:01:19.629Z,98015.00
2023-01-18T01:04:05.276Z,98015.00
2023-01-18T01:06:44.524Z,98008.00
2023-01-18T01:09:25.093Z,98023.00
2023-01-18T01:12:12.496Z,98022.00
2023-01-18T01:15:03.761Z,98031.00
2023-01-18T01:17:53.250Z,98029.00
2023-01-18T01:20:39.691Z,98029.00
2023-01-18T01:23:43.694Z,98024.00
2023-01-18T01:26:11.730Z,98037.00
2023-01-18T01:28:39.509Z,98046.00
2023-01-18T01:31:14.167Z,98048.00
2023-01-18T01:33:41.409Z,98009.00
2023-01-18T01:36:15.233Z,98035.00
2023-01-18T01:38:42.486Z,98017.00
2023-01-18T01:41:21.864Z,98043.00
2023-01-18T01:43:54.299Z,98047.00
2023-01-18T01:46:32.899Z,98062.00
2023-01-18T01:49:26.676Z,98061.00
2023-01-18T01:51:58.525Z,98054.00
2023-01-18T01:54:42.899Z,98048.00
2023-01-18T01:57:18.033Z,98039.00
2023-01-18T01:59:55.122Z,98036.00
2023-01-18T02:02:22.199Z,98032.00
2023-01-18T02:04:54.187Z,98042.00
2023-01-18T02:07:28.917Z,98040.00
2023-01-18T02:09:57.446Z,98041.00
2023-01-18T02:12:25.138Z,98035.00
2023-01-18T02:14:54.175Z,98042.00
2023-01-18T02:17:34.258Z,98036.00
2023-01-18T02:20:42.371Z,98028.00
2023-01-18T02:23:34.064Z,98032.00
2023-01-18T02:26:36.324Z,98031.00
2023-01-18T02:29:11.979Z,98028.00
2023-01-18T02:31:55.595Z,98015.00
2023-01-18T02:34:41.234Z,98047.00
2023-01-18T02:37:42.541Z,98046.00
2023-01-18T02:40:39.748Z,98045.00
2023-01-18T02:43:29.941Z,98038.00
2023-01-18T02:46:18.134Z,98058.00
2023-01-18T02:48:47.086Z,98053.00
2023-01-18T02:51:14.013Z,98056.00
2023-01-18T02:53:44.749Z,98057.00
2023-01-18T02:56:44.851Z,98051.00
2023-01-18T02:59:17.912Z,98058.00
2023-01-18T03:01:49.083Z,98058.00
2023-01-18T03:04:31.255Z,98047.00
2023-01-18T03:07:11.829Z,98049.00
2023-01-18T03:09:42.534Z,98054.00
2023-01-18T03:12:46.071Z,98056.00
2023-01-18T03:15:47.635Z,98050.00
2023-01-18T03:19:02.230Z,98039.00
2023-01-18T03:21:48.207Z,98041.00
2023-01-18T03:24:18.561Z,97989.00
2023-01-18T03:26:56.039Z,97999.00
2023-01-18T03:29:42.595Z,98024.00
2023-01-18T03:32:35.832Z,98038.00
2023-01-18T03:35:16.802Z,98033.00
2023-01-18T03:37:47.262Z,98036.00
2023-01-18T03:40:20.010Z,98030.00
2023-01-18T03:43:11.276Z,98025.00
2023-01-18T03:45:44.224Z,98013.00
2023-01-18T03:48:12.188Z,98013.00
2023-01-18T03:50:54.343Z,98032.00
2023-01-18T03:53:35.037Z,98018.00
2023-01-18T03:56:10.853Z,98031.00
2023-01-18T03:58:37.957Z,98012.00
2023-01-18T04:01:05.393Z,98016.00
2023-01-18T04:03:34.288Z,98017.00
2023-01-18T04:06:05.475Z,98025.00
2023-01-18T04:08:32.469Z,98015.00
2023-01-18T04:10:59.324Z,98016.00
2023-01-18T04:13:26.177Z,98024.00
2023-01-18T04:15:53.110Z,98036.00
2023-01-18T04:18:20.043Z,98011.00
2023-01-18T04:20:47.074Z,98035.00
2023-01-18T04:23:14.075Z,98048.00
2023-01-18T04:25:40.981Z,98042.00
2023-01-18T04:28:07.942Z,98044.00
2023-01-18T04:30:34.891Z,98029.00
2023-01-18T04:33:02.047Z,98042.00
2023-01-18T04:35:29.063Z,98048.00
2023-01-18T04:37:55.921Z,98043.00
2023-01-18T04:40:22.817Z,98045.00
2023-01-18T04:42:54.523Z,98046.00
2023-01-18T04:45:21.549Z,98052.00
2023-01-18T04:47:48.385Z,98055.00
2023-01-18T04:50:15.636Z,98059.00
2023-01-18T04:52:42.582Z,98061.00
2023-01-18T04:55:11.663Z,98058.00
2023-01-18T04:57:38.987Z,98061.00
2023-01-18T05:00:08.742Z,98066.00
2023-01-18T05:02:35.943Z,98065.00
2023-01-18T05:05:04.984Z,98062.00
2023-01-18T05:07:33.872Z,98059.00
2023-01-18T05:10:01.472Z,98039.00
2023-01-18T05:12:29.551Z,98069.00
2023-01-18T05:14:56.765Z,98079.00
2023-01-18T05:17:27.596Z,98074.00
2023-01-18T05:19:55.049Z,98076.00
2023-01-18T05:22:23.073Z,98066.00
2023-01-18T05:24:50.039Z,98061.00
2023-01-18T05:27:17.209Z,98063.00
2023-01-18T05:29:44.167Z,98054.00
2023-01-18T05:32:11.404Z,98065.00
2023-01-18T05:34:38.312Z,98052.00
2023-01-18T05:37:05.276Z,98068.00
2023-01-18T05:39:32.244Z,98058.00
2023-01-18T05:42:00.264Z,98049.00
2023-01-18T05:44:27.726Z,98057.00
2023-01-18T05:46:54.661Z,98055.00
2023-01-18T05:49:21.499Z,98046.00
2023-01-18T05:51:48.430Z,98049.00
2023-01-18T05:54:15.510Z,98051.00
2023-01-18T05:56:42.889Z,98055.00
2023-01-18T05:59:09.754Z,98045.00
2023-01-18T06:01:36.969Z,98046.00
2023-01-18T06:04:03.893Z,98053.00
2023-01-18T06:06:32.545Z,98051.00
2023-01-18T06:09:01.271Z,98046.00
2023-01-18T06:11:28.889Z,98054.00
2023-01-18T06:13:55.891Z,98044.00
2023-01-18T06:16:22.868Z,98048.00
2023-01-18T06:18:49.908Z,98053.00
2023-01-18T06:21:17.968Z,98067.00
2023-01-18T06:23:44.934Z,98060.00
2023-01-18T06:26:11.943Z,98047.00
2023-01-18T06:28:38.822Z,98031.00
2023-01-18T06:31:08.224Z,98033.00
2023-01-18T06:33:35.241Z,98036.00
2023-01-18T06:36:02.469Z,98047.00
2023-01-18T06:38:30.073Z,98043.00
2023-01-18T06:40:57.507Z,98026.00
2023-01-18T06:43:24.434Z,98034.00
2023-01-18T06:45:56.700Z,98037.00
2023-01-18T06:48:25.230Z,98031.00
2023-01-18T06:50:55.759Z,98029.00
2023-01-18T06:53:22.802Z,98031.00
2023-01-18T06:56:10.533Z,98038.00
2023-01-18T06:58:37.808Z,98040.00
2023-01-18T07:01:05.369Z,98049.00
2023-01-18T07:03:33.018Z,98039.00
2023-01-18T07:06:02.503Z,98059.00
2023-01-18T07:08:31.170Z,98059.00
2023-01-18T07:10:59.587Z,98053.00
2023-01-18T07:13:26.999Z,98054.00
2023-01-18T07:15:58.369Z,98061.00
2023-01-18T07:18:26.718Z,98056.00
2023-01-18T07:21:10.030Z,98061.00
2023-01-18T07:23:40.056Z,98051.00
2023-01-18T07:26:11.463Z,98056.00
2023-01-18T07:28:38.721Z,98046.00
2023-01-18T07:31:07.993Z,98054.00
2023-01-18T07:33:36.704Z,98057.00
2023-01-18T07:36:06.387Z,98058.00
2023-01-18T07:38:34.050Z,98056.00
2023-01-18T07:41:04.640Z,98056.00
2023-01-18T07:43:33.329Z,98068.00
2023-01-18T07:46:03.908Z,98061.00
2023-01-18T07:48:31.787Z,98065.00
2023-01-18T07:51:02.699Z,98066.00
2023-01-18T07:53:31.458Z,98051.00
2023-01-18T07:56:04.921Z,98042.00
2023-01-18T07:58:31.837Z,98054.00
2023-01-18T08:01:15.791Z,98042.00
2023-01-18T08:03:45.054Z,98035.00
2023-01-18T08:06:16.983Z,97971.00
2023-01-18T08:08:44.524Z,98040.00
2023-01-18T08:11:12.496Z,98044.00
2023-01-18T08:13:39.880Z,98043.00
2023-01-18T08:16:11.209Z,98040.00
2023-01-18T08:18:38.989Z,98037.00
2023-01-18T08:21:08.851Z,98037.00
2023-01-18T08:23:37.608Z,98049.00
2023-01-18T08:26:05.829Z,98057.00
2023-01-18T08:28:33.125Z,98058.00
2023-01-18T08:31:16.784Z,98049.00
2023-01-18T08:33:48.525Z,98060.00
2023-01-18T08:36:22.824Z,98058.00
2023-01-18T08:38:55.314Z,98063.00
2023-01-18T08:41:28.152Z,98060.00
2023-01-18T08:43:56.771Z,98057.00
2023-01-18T08:46:24.833Z,98037.00
2023-01-18T08:48:54.585Z,98051.00
2023-01-18T08:51:23.024Z,98052.00
2023-01-18T08:53:51.628Z,98049.00
2023-01-18T08:56:20.279Z,98047.00
2023-01-18T08:58:47.626Z,98050.00
2023-01-18T09:01:14.589Z,98049.00
2023-01-18T09:03:42.497Z,98056.00
2023-01-18T09:06:12.538Z,98058.00
2023-01-18T09:08:40.001Z,98056.00
2023-01-18T09:11:10.397Z,98059.00
2023-01-18T09:13:47.817Z,98057.00
2023-01-18T09:16:26.017Z,98058.00
2023-01-18T09:18:55.266Z,98066.00
2023-01-18T09:21:22.580Z,98069.00
2023-01-18T09:23:50.971Z,98069.00
2023-01-18T09:26:20.846Z,98069.00
2023-01-18T09:28:52.289Z,98061.00
2023-01-18T09:31:22.823Z,98057.00
2023-01-18T09:33:53.967Z,98062.00
2023-01-18T09:36:26.343Z,98059.00
2023-01-18T09:38:55.816Z,98067.00
2023-01-18T09:41:43.141Z,98067.00
2023-01-18T09:44:29.580Z,98047.00
2023-01-18T09:47:23.859Z,98061.00
2023-01-18T09:50:15.627Z,98049.00
2023-01-18T09:53:17.894Z,98051.00
2023-01-18T09:56:07.304Z,98042.00
2023-01-18T09:58:58.626Z,98039.00
2023-01-18T10:01:32.603Z,98045.00
2023-01-18T10:04:17.174Z,98042.00
2023-01-18T10:06:55.672Z,98009.00
2023-01-18T10:09:34.531Z,98024.00
2023-01-18T10:12:15.416Z,98034.00
2023-01-18T10:15:00.460Z,98030.00
2023-01-18T10:17:38.976Z,98003.00
2023-01-18T10:20:29.681Z,98018.00
2023-01-18T10:23:04.676Z,97997.00
2023-01-18T10:25:52.302Z,98008.00
2023-01-18T10:28:45.223Z,98022.00
2023-01-18T10:31:39.279Z,98029.00
2023-01-18T10:34:19.344Z,98017.00
2023-01-18T10:36:57.021Z,98024.00
2023-01-18T10:39:30.887Z,98031.00
2023-01-18T10:42:05.910Z,97997.00
2023-01-18T10:44:33.575Z,97988.00
2023-01-18T10:47:03.928Z,97972.00
2023-01-18T10:49:43.258Z,98002.00
2023-01-18T10:52:31.563Z,97997.00
2023-01-18T10:55:02.900Z,97986.00
2023-01-18T10:57:42.308Z,97988.00
2023-01-18T11:00:35.993Z,97981.00
2023-01-18T11:03:05.476Z,97986.00
2023-01-18T11:05:39.957Z,97991.00
2023-01-18T11:08:32.822Z,97983.00
2023-01-18T11:11:03.725Z,97987.00
2023-01-18T11:13:39.649Z,97987.00
2023-01-18T11:16:21.541Z,97994.00
2023-01-18T11:19:03.113Z,97989.00
2023-01-18T11:21:42.387Z,97991.00
2023-01-18T11:24:34.156Z,97997.00
2023-01-18T11:27:16.783Z,97997.00
2023-01-18T11:29:46.303Z,98010.00
2023-01-18T11:32:29.333Z,98027.00
2023-01-18T11:35:00.131Z,98024.00
2023-01-18T11:37:44.604Z,98024.00
2023-01-18T11:40:20.691Z,98026.00
2023-01-18T11:42:50.851Z,98036.00
2023-01-18T11:45:59.576Z,98038.00
2023-01-18T11:48:50.075Z,98036.00
2023-01-18T11:51:31.083Z,98006.00
2023-01-18T11:54:28.993Z,98023.00
2023-01-18T11:57:02.790Z,98023.00
2023-01-18T11:59:31.154Z,98022.00
2023-01-18T12:02:58.436Z,98015.00
2023-01-18T12:05:46.525Z,98015.00
2023-01-18T12:08:51.483Z,98018.00
2023-01-18T12:11:33.265Z,98022.00
2023-01-18T12:14:12.885Z,98021.00
2023-01-18T12:16:53.818Z,98010.00
2023-01-18T12:19:54.121Z,98016.00
2023-01-18T12:22:34.676Z,98001.00
2023-01-18T12:25:21.574Z,97996.00
2023-01-18T12:28:07.583Z,97992.00
2023-01-18T12:31:07.769Z,97991.00
2023-01-18T12:34:12.653Z,97986.00
2023-01-18T12:37:08.137Z,97993.00
2023-01-18T12:40:22.379Z,97994.00
2023-01-18T12:43:10.566Z,98000.00
2023-01-18T12:46:09.925Z,98000.00
2023-01-18T12:49:04.709Z,97999.00
2023-01-18T12:51:37.481Z,97994.00
2023-01-18T12:54:13.497Z,98003.00
2023-01-18T12:56:45.967Z,98010.00
2023-01-18T12:59:24.260Z,97997.00
2023-01-18T13:02:16.317Z,97991.00
2023-01-18T13:04:53.442Z,97996.00
2023-01-18T13:07:32.487Z,97997.00
2023-01-18T13:10:00.686Z,97999.00
2023-01-18T13:12:28.871Z,97997.00
2023-01-18T13:15:14.034Z,98006.00
2023-01-18T13:17:57.084Z,97999.00
2023-01-18T13:20:36.373Z,98008.00
2023-01-18T13:23:48.124Z,98004.00
2023-01-18T13:26:32.534Z,98002.00
2023-01-18T13:29:30.015Z,98001.00
2023-01-18T13:31:58.178Z,98000.00
2023-01-18T13:34:32.499Z,98001.00
2023-01-18T13:37:14.406Z,98006.00
2023-01-18T13:39:48.095Z,98017.00
2023-01-18T13:42:20.624Z,98009.00
2023-01-18T13:44:50.098Z,98011.00
2023-01-18T13:47:35.737Z,98010.00
2023-01-18T13:50:03.042Z,98016.00
2023-01-18T13:52:42.348Z,98008.00
2023-01-18T13:55:31.417Z,98027.00
2023-01-18T13:57:58.893Z,98027.00
2023-01-18T14:00:28.185Z,98029.00
2023-01-18T14:03:14.394Z,98044.00
2023-01-18T14:05:48.615Z,98059.00
2023-01-18T14:08:27.577Z,98063.00
2023-01-18T14:11:05.681Z,98044.00
2023-01-18T14:13:44.774Z,98057.00
2023-01-18T14:16:38.425Z,98060.00
2023-01-18T14:19:18.319Z,98062.00
2023-01-18T14:22:26.690Z,98056.00
2023-01-18T14:25:17.330Z,98047.00
2023-01-18T14:27:53.027Z,98050.00
2023-01-18T14:30:35.345Z,98058.00
2023-01-18T14:33:16.435Z,98066.00
2023-01-18T14:36:28.855Z,98076.00
2023-01-18T14:39:17.735Z,98077.00
2023-01-18T14:41:49.647Z,98080.00
2023-01-18T14:44:27.267Z,98095.00
2023-01-18T14:46:57.491Z,98094.00
2023-01-18T14:49:31.088Z,98093.00
2023-01-18T14:51:59.458Z,98087.00
2023-01-18T14:54:26.608Z,98088.00
2023-01-18T14:57:05.736Z,98092.00
2023-01-18T14:59:33.934Z,98085.00
2023-01-18T15:02:16.618Z,98097.00
2023-01-18T15:04:45.691Z,98083.00
2023-01-18T15:07:30.627Z,98103.00
2023-01-18T15:09:58.870Z,98103.00
2023-01-18T15:12:32.268Z,98106.00
2023-01-18T15:15:15.104Z,98110.00
2023-01-18T15:17:43.203Z,98110.00
2023-01-18T15:20:15.108Z,98116.00
2023-01-18T15:22:43.030Z,98114.00
2023-01-18T15:25:36.994Z,98111.00
2023-01-18T15:28:18.430Z,98116.00
2023-01-18T15:30:55.988Z,98117.00
2023-01-18T15:33:26.260Z,98118.00
2023-01-18T15:36:01.312Z,98114.00
2023-01-18T15:38:28.746Z,98124.00
2023-01-18T15:41:06.283Z,98130.00
2023-01-18T15:43:44.141Z,98135.00
2023-01-18T15:46:17.532Z,98134.00
2023-01-18T15:48:56.455Z,98123.00
2023-01-18T15:51:44.262Z,98143.00
2023-01-18T15:54:27.054Z,98140.00
2023-01-18T15:57:09.462Z,98142.00
2023-01-18T15:59:36.618Z,98140.00
2023-01-18T16:02:23.795Z,98147.00
2023-01-18T16:05:28.628Z,98144.00
2023-01-18T16:08:21.172Z,98156.00
2023-01-18T16:10:55.406Z,98149.00
2023-01-18T16:13:23.085Z,98155.00
2023-01-18T16:16:21.488Z,98150.00
2023-01-18T16:19:17.494Z,98144.00
2023-01-18T16:21:57.581Z,98144.00
2023-01-18T16:24:34.589Z,98159.00
2023-01-18T16:27:15.679Z,98156.00
2023-01-18T16:29:49.943Z,98163.00
2023-01-18T16:32:20.012Z,98161.00
2023-01-18T16:34:47.205Z,98165.00
2023-01-18T16:37:14.193Z,98170.00
2023-01-18T16:39:45.553Z,98170.00
2023-01-18T16:42:13.777Z,98163.00
2023-01-18T16:44:45.500Z,98174.00
2023-01-18T16:47:16.742Z,98170.00
2023-01-18T16:49:44.431Z,98168.00
2023-01-18T16:52:13.307Z,98164.00
2023-01-18T16:54:45.629Z,98174.00
2023-01-18T16:57:25.176Z,98165.00
2023-01-18T16:59:53.249Z,98187.00
2023-01-18T17:02:23.083Z,98180.00
2023-01-18T17:04:51.641Z,98182.00
2023-01-18T17:07:18.501Z,98174.00
2023-01-18T17:09:49.123Z,98176.00
2023-01-18T17:12:18.079Z,98180.00
2023-01-18T17:14:45.169Z,98178.00
2023-01-18T17:17:12.055Z,98190.00
2023-01-18T17:19:41.259Z,98185.00
2023-01-18T17:22:08.133Z,98184.00
2023-01-18T17:24:35.188Z,98199.00
2023-01-18T17:27:02.291Z,98182.00
2023-01-18T17:29:30.053Z,98198.00
2023-01-18T17:32:00.516Z,98197.00
2023-01-18T17:34:29.118Z,98204.00
2023-01-18T17:36:59.973Z,98202.00
2023-01-18T17:39:37.421Z,98210.00
2023-01-18T17:42:19.320Z,98221.00
2023-01-18T17:45:02.277Z,98208.00
2023-01-18T17:47:31.625Z,98216.00
2023-01-18T17:50:00.802Z,98227.00
2023-01-18T17:52:29.075Z,98221.00
2023-01-18T17:54:56.007Z,98228.00
2023-01-18T17:57:23.425Z,98228.00
2023-01-18T17:59:53.104Z,98233.00
2023-01-18T18:02:20.328Z,98220.00
2023-01-18T18:04:47.359Z,98224.00
2023-01-18T18:07:14.511Z,98230.00
2023-01-18T18:09:42.742Z,98231.00
2023-01-18T18:12:11.623Z,98234.00
2023-01-18T18:14:40.252Z,98236.00
2023-01-18T18:17:08.316Z,98246.00
2023-01-18T18:19:35.391Z,98241.00
2023-01-18T18:22:04.772Z,98256.00
2023-01-18T18:24:32.203Z,98248.00
2023-01-18T18:27:00.249Z,98254.00
2023-01-18T18:29:27.924Z,98254.00
2023-01-18T18:31:54.972Z,98261.00
2023-01-18T18:34:24.820Z,98261.00
2023-01-18T18:36:51.842Z,98271.00
2023-01-18T18:39:18.891Z,98270.00
2023-01-18T18:41:48.324Z,98274.00
2023-01-18T18:44:27.018Z,98274.00
2023-01-18T18:47:03.091Z,98279.00
2023-01-18T18:49:38.389Z,98289.00
2023-01-18T18:52:05.724Z,98289.00
2023-01-18T18:54:32.765Z,98309.00
2023-01-18T18:57:00.571Z,98300.00
2023-01-18T18:59:27.576Z,98320.00
2023-01-18T19:01:56.202Z,98309.00
2023-01-18T19:04:23.612Z,98318.00
2023-01-18T19:06:50.598Z,98327.00
2023-01-18T19:09:20.219Z,98323.00
2023-01-18T19:11:55.020Z,98335.00
2023-01-18T19:14:25.799Z,98340.00
2023-01-18T19:16:54.199Z,98334.00
2023-01-18T19:19:21.338Z,98348.00
2023-01-18T19:21:50.044Z,98317.00
2023-01-18T19:24:17.301Z,98345.00
2023-01-18T19:26:44.948Z,98326.00
2023-01-18T19:29:12.009Z,98356.00
2023-01-18T19:31:39.654Z,98356.00
2023-01-18T19:34:07.070Z,98357.00
2023-01-18T19:36:34.059Z,98353.00
2023-01-18T19:39:03.508Z,98346.00
2023-01-18T19:41:32.391Z,98354.00
2023-01-18T19:43:59.265Z,98352.00
2023-01-18T19:46:26.731Z,98346.00
2023-01-18T19:48:59.304Z,98340.00
2023-01-18T19:51:27.795Z,98334.00
2023-01-18T19:53:57.153Z,98355.00
2023-01-18T19:56:25.840Z,98366.00
2023-01-18T19:58:52.726Z,98360.00
2023-01-18T20:01:34.808Z,98375.00
2023-01-18T20:04:06.999Z,98377.00
2023-01-18T20:06:37.452Z,98390.00
2023-01-18T20:09:12.579Z,98397.00
2023-01-18T20:11:45.619Z,98404.00
2023-01-18T20:14:13.224Z,98404.00
2023-01-18T20:16:40.640Z,98415.00
2023-01-18T20:19:07.518Z,98414.00
2023-01-18T20:21:34.774Z,98423.00
2023-01-18T20:24:01.712Z,98418.00
2023-01-18T20:26:36.451Z,98425.00
2023-01-18T20:29:07.636Z,98439.00
2023-01-18T20:31:39.536Z,98442.00
2023-01-18T20:34:07.342Z,98442.00
2023-01-18T20:36:36.141Z,98445.00
2023-01-18T20:39:05.158Z,98454.00
2023-01-18T20:41:32.208Z,98454.00
2023-01-18T20:43:59.391Z,98462.00
2023-01-18T20:46:26.460Z,98477.00
2023-01-18T20:48:53.389Z,98474.00
2023-01-18T20:51:20.602Z,98489.00
2023-01-18T20:53:47.600Z,98498.00
2023-01-18T20:56:28.421Z,98500.00
2023-01-18T20:58:56.272Z,98501.00
2023-01-18T21:01:32.201Z,98501.00
2023-01-18T21:04:02.321Z,98502.00
2023-01-18T21:06:30.018Z,98480.00
2023-01-18T21:08:59.416Z,98496.00
2023-01-18T21:11:26.989Z,98503.00
2023-01-18T21:13:55.645Z,98508.00
2023-01-18T21:16:23.804Z,98506.00
2023-01-18T21:18:56.114Z,98509.00
2023-01-18T21:21:24.061Z,98514.00
2023-01-18T21:23:51.234Z,98518.00
2023-01-18T21:26:18.401Z,98523.00
2023-01-18T21:28:46.872Z,98521.00
2023-01-18T21:31:14.083Z,98535.00
2023-01-18T21:33:41.038Z,98546.00
2023-01-18T21:36:13.545Z,98545.00
2023-01-18T21:38:40.988Z,98549.00
2023-01-18T21:41:26.306Z,98559.00
2023-01-18T21:44:12.619Z,98557.00
2023-01-18T21:46:49.672Z,98561.00
2023-01-18T21:49:57.676Z,98568.00
2023-01-18T21:52:41.110Z,98563.00
2023-01-18T21:55:08.526Z,98564.00
2023-01-18T21:57:36.658Z,98576.00
2023-01-18T22:00:05.385Z,98589.00
2023-01-18T22:02:33.607Z,98582.00
2023-01-18T22:05:00.628Z,98599.00
2023-01-18T22:07:30.253Z,98591.00
2023-01-18T22:10:05.035Z,98579.00
2023-01-18T22:12:35.836Z,98596.00
2023-01-18T22:15:04.939Z,98596.00
2023-01-18T22:17:32.296Z,98602.00
2023-01-18T22:19:59.899Z,98611.00
2023-01-18T22:22:26.959Z,98619.00
2023-01-18T22:24:54.123Z,98623.00
2023-01-18T22:27:21.087Z,98625.00
2023-01-18T22:29:48.167Z,98620.00
2023-01-18T22:32:15.353Z,98633.00
2023-01-18T22:34:42.249Z,98636.00
2023-01-18T22:37:10.465Z,98645.00
2023-01-18T22:39:37.323Z,98655.00
2023-01-18T22:42:04.523Z,98655.00
2023-01-18T22:44:32.768Z,98663.00
2023-01-18T22:46:59.724Z,98659.00
2023-01-18T22:49:26.666Z,98666.00
2023-01-18T22:51:53.521Z,98675.00
2023-01-18T22:54:22.873Z,98672.00
2023-01-18T22:56:50.025Z,98678.00
2023-01-18T22:59:17.515Z,98681.00
2023-01-18T23:01:44.422Z,98680.00
2023-01-18T23:04:11.641Z,98694.00
2023-01-18T23:06:48.010Z,98692.00
2023-01-18T23:09:17.654Z,98698.00
2023-01-18T23:11:47.779Z,98705.00
2023-01-18T23:14:33.661Z,98701.00
2023-01-18T23:17:19.141Z,98704.00
2023-01-18T23:19:46.398Z,98696.00
2023-01-18T23:22:13.382Z,98709.00
2023-01-18T23:24:40.513Z,98714.00
2023-01-18T23:27:12.369Z,98715.00
2023-01-18T23:29:39.915Z,98713.00
2023-01-18T23:32:07.997Z,98717.00
2023-01-18T23:34:35.249Z,98718.00
2023-01-18T23:37:02.141Z,98711.00
2023-01-18T23:39:47.969Z,98707.00
2023-01-18T23:42:33.398Z,98705.00
2023-01-18T23:45:18.831Z,98703.00
2023-01-18T23:48:04.480Z,98714.00
2023-01-18T23:50:49.752Z,98709.00
2023-01-18T23:53:35.147Z,98712.00
2023-01-18T23:56:02.182Z,98726.00
2023-01-18T23:58:29.040Z,98725.00
